Time;durP1;ratioP1;P1;durP2;ratioP2;P2;SDS_P1;SDS_P2;PMS_P1;PMS_P2;Temp;Humidity;BMP_temperature;BMP_pressure;BME280_temperature;BME280_humidity;BME280_pressure;Samples;Min_cycle;Max_cycle;Signal;HPM_P1;HPM_P2
2023/10/22 00:00:44;;;;;;;0.75;0.75;;;17.40;52.30;;;;;;6105831;23;20138;-86
2023/10/22 00:03:10;;;;;;;0.80;0.80;;;17.40;52.30;;;;;;6105428;23;20638;-88
2023/10/22 00:05:36;;;;;;;1.08;0.98;;;17.40;52.30;;;;;;6155562;23;20567;-88
2023/10/22 00:08:06;;;;;;;0.90;0.70;;;17.50;52.40;;;;;;6105101;23;20143;-87
2023/10/22 00:10:31;;;;;;;1.02;0.73;;;17.40;52.30;;;;;;6056317;23;20155;-87
2023/10/22 00:12:57;;;;;;;0.90;0.75;;;17.50;52.40;;;;;;6105484;23;20143;-86
2023/10/22 00:15:25;;;;;;;0.73;0.70;;;17.40;52.40;;;;;;6129388;23;20147;-86
2023/10/22 00:17:53;;;;;;;0.82;0.70;;;17.40;52.50;;;;;;6129993;23;20232;-84
2023/10/22 00:20:19;;;;;;;1.00;0.90;;;17.40;52.50;;;;;;6129340;23;20139;-84
2023/10/22 00:22:45;;;;;;;0.70;0.60;;;17.40;52.50;;;;;;6081671;23;20146;-88
2023/10/22 00:25:11;;;;;;;0.85;0.80;;;17.40;52.50;;;;;;6105638;23;20143;-87
2023/10/22 00:27:41;;;;;;;1.10;0.85;;;17.40;52.50;;;;;;6129801;23;20607;-87
2023/10/22 00:30:07;;;;;;;1.67;0.80;;;17.40;52.50;;;;;;6080088;23;20155;-83
2023/10/22 00:32:33;;;;;;;0.85;0.85;;;17.40;52.50;;;;;;6104936;23;20567;-86
2023/10/22 00:34:58;;;;;;;1.63;0.73;;;17.40;52.50;;;;;;6117465;23;20128;-86
2023/10/22 00:37:24;;;;;;;1.13;0.88;;;17.50;52.50;;;;;;6129311;23;20186;-87
2023/10/22 00:39:50;;;;;;;1.00;0.90;;;17.40;52.50;;;;;;6104919;23;20222;-85
2023/10/22 00:42:16;;;;;;;0.88;0.88;;;17.40;52.50;;;;;;6104025;23;20162;-87
2023/10/22 00:44:41;;;;;;;0.65;0.65;;;17.40;52.50;;;;;;6129589;23;20140;-86
2023/10/22 00:47:08;;;;;;;0.60;0.60;;;17.40;52.50;;;;;;6112598;23;20274;-85
2023/10/22 00:49:34;;;;;;;1.10;0.80;;;17.40;52.50;;;;;;6130068;23;20147;-87
2023/10/22 00:52:00;;;;;;;0.73;0.73;;;17.40;52.50;;;;;;6098633;23;20195;-85
2023/10/22 00:54:26;;;;;;;1.10;0.88;;;17.50;52.60;;;;;;6064246;23;20153;-85
2023/10/22 00:56:51;;;;;;;0.73;0.60;;;17.40;52.50;;;;;;6065016;23;20150;-85
2023/10/22 00:59:17;;;;;;;0.65;0.65;;;17.40;52.60;;;;;;6065224;23;20182;-85
2023/10/22 01:01:43;;;;;;;1.08;0.80;;;17.40;52.60;;;;;;6065047;23;20161;-86
2023/10/22 01:04:09;;;;;;;0.90;0.75;;;17.40;52.60;;;;;;6041174;23;20629;-85
2023/10/22 01:06:35;;;;;;;0.80;0.80;;;17.40;52.50;;;;;;6017507;23;20158;-88
2023/10/22 01:09:02;;;;;;;0.65;0.65;;;17.40;52.50;;;;;;6017175;23;20158;-88
2023/10/22 01:11:28;;;;;;;0.82;0.80;;;17.40;52.50;;;;;;6065183;23;20192;-85
2023/10/22 01:13:53;;;;;;;0.95;0.90;;;17.40;52.60;;;;;;6065052;23;20153;-86
2023/10/22 01:16:19;;;;;;;0.95;0.80;;;17.40;52.50;;;;;;6065087;23;20145;-84
2023/10/22 01:18:45;;;;;;;1.42;0.80;;;17.40;52.50;;;;;;6065107;23;20157;-85
2023/10/22 01:21:11;;;;;;;0.70;0.63;;;17.40;52.50;;;;;;6064891;23;20161;-85
2023/10/22 01:23:38;;;;;;;0.80;0.80;;;17.40;52.50;;;;;;6045710;23;20160;-86
2023/10/22 01:26:06;;;;;;;0.98;0.88;;;17.30;52.50;;;;;;6138684;23;20538;-87
2023/10/22 01:28:33;;;;;;;0.70;0.70;;;17.40;52.60;;;;;;6110348;23;20170;-85
2023/10/22 01:30:59;;;;;;;0.85;0.85;;;17.40;52.60;;;;;;6158453;23;20177;-88
2023/10/22 01:33:25;;;;;;;0.93;0.80;;;17.30;52.60;;;;;;6134396;23;20130;-85
2023/10/22 01:35:51;;;;;;;1.15;0.77;;;17.30;52.70;;;;;;6109759;23;20146;-84
2023/10/22 01:38:16;;;;;;;0.65;0.65;;;17.40;52.70;;;;;;6134566;23;20521;-86
2023/10/22 01:40:42;;;;;;;1.17;0.70;;;17.30;52.70;;;;;;6133860;23;20147;-86
2023/10/22 01:43:08;;;;;;;0.80;0.80;;;17.40;52.70;;;;;;6133993;23;20226;-85
2023/10/22 01:45:34;;;;;;;0.70;0.70;;;17.30;52.70;;;;;;6133831;23;20653;-86
2023/10/22 01:48:00;;;;;;;0.75;0.70;;;17.30;52.70;;;;;;6158326;23;20194;-85
2023/10/22 01:50:26;;;;;;;0.60;0.60;;;17.40;52.80;;;;;;6158588;23;20138;-85
2023/10/22 01:52:52;;;;;;;0.85;0.70;;;17.30;52.70;;;;;;6109174;23;20155;-87
2023/10/22 01:55:18;;;;;;;0.68;0.60;;;17.30;52.70;;;;;;6133707;23;20202;-88
2023/10/22 01:57:44;;;;;;;0.80;0.80;;;17.40;52.80;;;;;;6158173;23;20157;-88
2023/10/22 02:00:11;;;;;;;0.80;0.80;;;17.40;52.70;;;;;;6158741;23;20162;-88
2023/10/22 02:02:38;;;;;;;0.73;0.73;;;17.40;52.70;;;;;;6109863;23;20155;-87
2023/10/22 02:05:04;;;;;;;0.70;0.70;;;17.40;52.70;;;;;;6158573;23;20521;-86
2023/10/22 02:07:29;;;;;;;0.80;0.70;;;17.30;52.60;;;;;;6134124;23;20237;-84
2023/10/22 02:09:56;;;;;;;0.63;0.63;;;17.40;52.70;;;;;;6133722;23;20143;-86
2023/10/22 02:12:33;;;;;;;0.82;0.77;;;17.40;52.70;;;;;;6134020;23;20221;-86
2023/10/22 02:14:59;;;;;;;0.90;0.80;;;17.40;52.70;;;;;;6108555;23;20597;-88
2023/10/22 02:17:24;;;;;;;0.93;0.82;;;17.30;52.70;;;;;;6158605;23;20131;-87
2023/10/22 02:19:50;;;;;;;0.60;0.60;;;17.40;52.70;;;;;;6133847;23;20459;-85
2023/10/22 02:22:16;;;;;;;0.80;0.80;;;17.30;53.40;;;;;;6109727;23;20181;-85
2023/10/22 02:24:44;;;;;;;0.60;0.60;;;17.20;52.70;;;;;;6098318;23;20176;-87
2023/10/22 02:27:11;;;;;;;0.98;0.80;;;17.30;52.70;;;;;;6074750;23;20168;-88
2023/10/22 02:29:37;;;;;;;0.88;0.80;;;17.30;52.70;;;;;;6100169;23;20167;-85
2023/10/22 02:32:04;;;;;;;1.05;0.80;;;17.30;52.70;;;;;;6100120;23;20180;-84
2023/10/22 02:34:30;;;;;;;0.70;0.60;;;17.30;52.70;;;;;;6075922;23;20161;-88
2023/10/22 02:36:56;;;;;;;1.00;0.90;;;17.40;52.80;;;;;;6124599;23;20141;-85
2023/10/22 02:39:24;;;;;;;0.90;0.70;;;17.40;52.70;;;;;;6075947;23;20487;-87
2023/10/22 02:41:50;;;;;;;0.80;0.80;;;17.30;52.80;;;;;;6075836;23;20170;-87
2023/10/22 02:44:19;;;;;;;0.70;0.70;;;17.30;52.80;;;;;;6099923;23;20210;-87
2023/10/22 02:46:44;;;;;;;0.50;0.50;;;17.30;52.80;;;;;;6099794;23;20717;-85
2023/10/22 02:49:13;;;;;;;0.75;0.73;;;17.30;52.80;;;;;;6100095;23;20144;-85
2023/10/22 02:51:41;;;;;;;0.80;0.80;;;17.40;52.80;;;;;;6075642;23;20243;-86
2023/10/22 02:54:06;;;;;;;0.88;0.80;;;17.30;52.80;;;;;;6075277;23;20619;-86
2023/10/22 02:56:32;;;;;;;0.93;0.70;;;17.40;52.90;;;;;;6130710;23;20150;-85
2023/10/22 02:58:58;;;;;;;0.70;0.70;;;17.40;52.80;;;;;;6111331;23;20460;-84
2023/10/22 03:01:25;;;;;;;0.82;0.60;;;17.30;52.80;;;;;;6135334;23;20269;-85
2023/10/22 03:03:51;;;;;;;1.15;0.80;;;17.40;52.80;;;;;;6186012;23;20645;-85
2023/10/22 03:06:17;;;;;;;1.08;0.70;;;17.30;52.80;;;;;;6135215;23;20146;-87
2023/10/22 03:08:43;;;;;;;0.80;0.80;;;17.40;52.80;;;;;;6111094;23;20562;-85
2023/10/22 03:11:17;;;;;;;0.73;0.73;;;17.40;52.70;;;;;;6159875;23;20178;-84
2023/10/22 03:13:46;;;;;;;0.65;0.65;;;17.40;52.80;;;;;;6159692;23;20135;-85
2023/10/22 03:16:14;;;;;;;0.60;0.60;;;17.30;52.80;;;;;;6160418;23;20135;-84
2023/10/22 03:18:40;;;;;;;0.80;0.70;;;17.30;52.70;;;;;;6112065;23;20159;-88
2023/10/22 03:21:11;;;;;;;0.80;0.80;;;17.30;52.80;;;;;;6134947;23;20170;-88
2023/10/22 03:23:41;;;;;;;0.50;0.50;;;17.40;52.80;;;;;;6135474;23;20139;-84
2023/10/22 03:26:07;;;;;;;0.70;0.70;;;17.40;52.80;;;;;;6111783;23;20153;-84
2023/10/22 03:28:33;;;;;;;0.90;0.90;;;17.30;52.80;;;;;;6186231;23;20217;-84
2023/10/22 03:31:03;;;;;;;1.00;0.80;;;17.30;52.80;;;;;;6134901;23;20573;-84
2023/10/22 03:33:29;;;;;;;0.68;0.68;;;17.30;52.80;;;;;;6111061;23;20147;-84
2023/10/22 03:35:55;;;;;;;1.00;0.73;;;17.30;52.80;;;;;;6135542;23;20158;-87
2023/10/22 03:38:21;;;;;;;1.08;0.80;;;17.30;52.80;;;;;;6159442;23;20138;-87
2023/10/22 03:40:47;;;;;;;0.95;0.65;;;17.30;52.80;;;;;;6159193;23;20147;-86
2023/10/22 03:43:13;;;;;;;0.70;0.70;;;17.30;52.80;;;;;;6159302;23;20505;-87
2023/10/22 03:45:38;;;;;;;0.60;0.60;;;17.30;52.80;;;;;;6134639;23;20143;-84
2023/10/22 03:48:05;;;;;;;0.80;0.80;;;17.20;52.80;;;;;;6109968;23;20225;-85
2023/10/22 03:50:31;;;;;;;0.77;0.75;;;17.30;52.80;;;;;;6159272;23;20135;-86
2023/10/22 03:52:56;;;;;;;1.00;0.90;;;17.30;53.50;;;;;;6184798;23;20138;-84
2023/10/22 03:55:22;;;;;;;0.70;0.68;;;17.30;52.80;;;;;;6159219;23;20193;-84
2023/10/22 03:57:48;;;;;;;0.70;0.70;;;17.30;52.80;;;;;;6134321;23;20169;-84
2023/10/22 04:00:14;;;;;;;0.77;0.70;;;17.30;53.50;;;;;;6159583;23;20140;-85
2023/10/22 04:02:40;;;;;;;0.63;0.50;;;17.30;52.80;;;;;;6159686;23;20139;-85
2023/10/22 04:05:08;;;;;;;0.82;0.73;;;17.30;52.90;;;;;;6134779;23;20217;-87
2023/10/22 04:07:34;;;;;;;0.77;0.70;;;17.30;52.80;;;;;;6159921;23;20222;-84
2023/10/22 04:10:02;;;;;;;0.65;0.60;;;17.30;52.90;;;;;;6159408;23;20178;-87
2023/10/22 04:12:32;;;;;;;0.80;0.80;;;17.30;52.90;;;;;;6134878;23;20178;-85
2023/10/22 04:14:57;;;;;;;0.70;0.63;;;17.30;52.90;;;;;;6159307;23;20185;-85
2023/10/22 04:17:23;;;;;;;0.82;0.68;;;17.30;53.00;;;;;;6134338;23;20222;-85
2023/10/22 04:19:48;;;;;;;0.93;0.82;;;17.30;53.00;;;;;;6134374;23;20159;-85
2023/10/22 04:22:14;;;;;;;0.70;0.70;;;17.30;53.00;;;;;;6158337;23;20201;-87
2023/10/22 04:24:40;;;;;;;1.08;0.88;;;17.30;53.00;;;;;;6185239;23;20522;-87
2023/10/22 04:27:06;;;;;;;0.70;0.70;;;17.30;52.90;;;;;;6159230;23;20143;-86
2023/10/22 04:29:32;;;;;;;0.90;0.60;;;17.30;53.00;;;;;;6158595;23;20154;-85
2023/10/22 04:31:58;;;;;;;0.85;0.77;;;17.30;53.00;;;;;;6158092;23;20548;-86
2023/10/22 04:34:23;;;;;;;0.80;0.60;;;17.20;52.90;;;;;;6158147;23;20142;-84
2023/10/22 04:36:49;;;;;;;0.70;0.63;;;17.20;53.00;;;;;;6159106;23;20559;-86
2023/10/22 04:39:15;;;;;;;0.88;0.70;;;17.30;53.00;;;;;;6184448;23;20136;-86
2023/10/22 04:41:42;;;;;;;0.98;0.85;;;17.30;53.00;;;;;;6133511;23;20242;-87
2023/10/22 04:44:07;;;;;;;0.73;0.70;;;17.30;53.70;;;;;;6158231;23;20189;-87
2023/10/22 04:46:33;;;;;;;0.70;0.70;;;17.30;53.10;;;;;;6157900;23;20638;-86
2023/10/22 04:49:00;;;;;;;0.80;0.80;;;17.30;53.10;;;;;;6134400;23;20154;-86
2023/10/22 04:51:26;;;;;;;0.70;0.70;;;17.30;53.10;;;;;;6134159;23;20273;-84
2023/10/22 04:53:52;;;;;;;0.73;0.60;;;17.30;53.00;;;;;;6133316;23;20534;-86
2023/10/22 04:56:18;;;;;;;0.70;0.70;;;17.30;53.10;;;;;;6185351;23;20142;-86
2023/10/22 04:58:44;;;;;;;0.70;0.70;;;17.20;53.10;;;;;;6134111;23;20143;-85
2023/10/22 05:01:11;;;;;;;1.33;0.90;;;17.30;53.10;;;;;;6158695;23;20571;-88
2023/10/22 05:03:37;;;;;;;0.80;0.70;;;17.20;53.00;;;;;;6158846;23;20142;-86
2023/10/22 05:06:05;;;;;;;0.70;0.60;;;17.30;53.10;;;;;;6184909;23;20141;-86
2023/10/22 05:08:31;;;;;;;0.80;0.57;;;17.30;53.10;;;;;;6134552;23;20143;-86
2023/10/22 05:10:56;;;;;;;0.77;0.63;;;17.30;53.10;;;;;;6158806;23;20178;-87
2023/10/22 05:13:22;;;;;;;0.63;0.60;;;17.30;53.10;;;;;;6109553;23;20197;-86
2023/10/22 05:15:52;;;;;;;0.60;0.60;;;17.20;53.10;;;;;;6159021;23;20522;-85
2023/10/22 05:18:18;;;;;;;1.23;0.73;;;17.30;53.10;;;;;;6134028;23;20154;-86
2023/10/22 05:20:44;;;;;;;0.57;0.50;;;17.20;53.00;;;;;;6109535;23;20478;-86
2023/10/22 05:23:09;;;;;;;0.60;0.60;;;17.30;53.00;;;;;;6133895;23;20153;-86
2023/10/22 05:25:36;;;;;;;1.00;0.90;;;17.20;53.00;;;;;;6158957;23;20439;-88
2023/10/22 05:28:03;;;;;;;1.00;0.70;;;17.30;53.10;;;;;;6158815;23;20559;-85
2023/10/22 05:30:31;;;;;;;0.77;0.68;;;17.30;53.00;;;;;;6133945;23;20205;-84
2023/10/22 05:32:57;;;;;;;0.60;0.60;;;17.30;53.00;;;;;;6109683;23;20201;-84
2023/10/22 05:35:23;;;;;;;0.68;0.65;;;17.30;53.00;;;;;;6134483;23;20138;-86
2023/10/22 05:37:49;;;;;;;0.70;0.60;;;17.30;53.00;;;;;;6109822;23;20186;-86
2023/10/22 05:40:17;;;;;;;0.77;0.70;;;17.30;53.10;;;;;;6158683;23;20131;-86
2023/10/22 05:42:44;;;;;;;0.82;0.68;;;17.30;53.00;;;;;;6084732;23;20178;-84
2023/10/22 05:45:11;;;;;;;0.80;0.80;;;17.30;53.20;;;;;;6084073;23;20511;-86
2023/10/22 05:47:37;;;;;;;0.60;0.60;;;17.30;53.00;;;;;;6103477;23;20250;-87
2023/10/22 05:50:04;;;;;;;0.60;0.60;;;17.30;53.00;;;;;;6106253;23;20143;-85
2023/10/22 05:52:29;;;;;;;0.73;0.70;;;17.30;53.60;;;;;;6104623;23;20262;-87
2023/10/22 05:54:55;;;;;;;0.60;0.60;;;17.30;53.00;;;;;;6128296;23;20167;-88
2023/10/22 05:57:23;;;;;;;0.70;0.70;;;17.30;53.00;;;;;;6153986;23;20140;-86
2023/10/22 05:59:49;;;;;;;0.57;0.57;;;17.30;53.00;;;;;;6129897;23;20140;-84
2023/10/22 06:02:15;;;;;;;0.65;0.65;;;17.30;53.00;;;;;;6107950;23;20154;-86
2023/10/22 06:04:45;;;;;;;0.85;0.80;;;17.30;52.90;;;;;;6156777;23;20139;-88
2023/10/22 06:07:11;;;;;;;0.55;0.55;;;17.30;53.00;;;;;;6130727;23;20162;-85
2023/10/22 06:09:42;;;;;;;0.85;0.70;;;17.30;53.00;;;;;;6156981;23;20143;-85
2023/10/22 06:12:30;;;;;;;0.93;0.70;;;17.40;53.00;;;;;;6104698;23;20190;-86
2023/10/22 06:15:16;;;;;;;0.70;0.68;;;17.30;53.00;;;;;;6013692;23;20165;-87
2023/10/22 06:18:27;;;;;;;0.45;0.45;;;17.30;53.00;;;;;;5957930;24;20155;-89
2023/10/22 06:20:55;;;;;;;0.70;0.70;;;17.40;53.00;;;;;;5844039;24;20821;-86
2023/10/22 06:23:37;;;;;;;0.85;0.70;;;17.30;52.90;;;;;;5822359;24;20245;-86
2023/10/22 06:26:16;;;;;;;0.68;0.68;;;17.30;53.00;;;;;;5822207;24;20508;-86
2023/10/22 06:28:44;;;;;;;0.98;0.70;;;17.30;53.10;;;;;;5822346;24;20147;-87
2023/10/22 06:31:49;;;;;;;1.02;0.82;;;17.30;53.00;;;;;;5770058;24;20203;-86
2023/10/22 06:34:24;;;;;;;0.77;0.77;;;17.30;53.10;;;;;;5769470;24;20171;-88
2023/10/22 06:37:03;;;;;;;0.60;0.60;;;17.30;53.20;;;;;;5771389;24;20296;-87
2023/10/22 06:39:38;;;;;;;0.63;0.60;;;17.30;53.10;;;;;;5752838;24;20605;-87
2023/10/22 06:42:09;;;;;;;1.05;0.80;;;17.30;54.00;;;;;;5770601;24;20171;-84
2023/10/22 06:44:42;;;;;;;0.70;0.65;;;17.30;53.10;;;;;;5769236;24;20163;-86
2023/10/22 06:47:19;;;;;;;0.70;0.70;;;17.40;52.90;;;;;;5802832;24;20584;-85
2023/10/22 06:49:48;;;;;;;0.50;0.50;;;17.40;52.90;;;;;;5869654;24;20173;-84
2023/10/22 06:52:14;;;;;;;0.80;0.60;;;17.50;52.90;;;;;;5923470;24;20221;-84
2023/10/22 06:54:40;;;;;;;0.52;0.50;;;17.50;53.00;;;;;;5953191;24;20144;-84
2023/10/22 06:57:06;;;;;;;0.60;0.60;;;17.40;52.90;;;;;;5961783;23;20277;-85
2023/10/22 06:59:31;;;;;;;0.50;0.50;;;17.50;53.20;;;;;;6010045;23;20154;-84
2023/10/22 07:01:57;;;;;;;0.60;0.60;;;17.50;53.00;;;;;;6037561;23;20484;-84
2023/10/22 07:04:25;;;;;;;0.50;0.50;;;17.50;53.00;;;;;;6072479;23;20157;-87
2023/10/22 07:06:54;;;;;;;0.47;0.47;;;17.60;53.00;;;;;;6095887;23;20198;-83
2023/10/22 07:09:20;;;;;;;0.50;0.50;;;17.60;53.00;;;;;;6072967;23;20159;-85
2023/10/22 07:11:46;;;;;;;0.52;0.50;;;17.70;53.00;;;;;;6098476;23;20184;-85
2023/10/22 07:14:17;;;;;;;5.95;0.80;;;17.70;53.20;;;;;;6074070;23;20148;-86
2023/10/22 07:16:43;;;;;;;1.35;0.50;;;17.70;52.90;;;;;;6041666;23;20158;-85
2023/10/22 07:19:09;;;;;;;1.10;0.40;;;17.70;52.80;;;;;;6118333;23;20229;-84
2023/10/22 07:21:53;;;;;;;1.15;0.55;;;17.60;52.80;;;;;;6102881;23;20152;-86
2023/10/22 07:24:22;;;;;;;0.80;0.47;;;17.60;52.90;;;;;;6016047;23;20301;-85
2023/10/22 07:26:48;;;;;;;0.75;0.50;;;17.60;53.10;;;;;;5969552;23;20168;-85
2023/10/22 07:29:17;;;;;;;0.55;0.50;;;17.70;53.20;;;;;;5968874;23;20157;-84
2023/10/22 07:32:10;;;;;;;0.50;0.50;;;17.70;53.00;;;;;;5969506;23;20177;-84
2023/10/22 07:34:59;;;;;;;0.43;0.40;;;17.90;53.00;;;;;;5966866;23;20238;-87
2023/10/22 07:37:25;;;;;;;0.40;0.32;;;17.80;53.00;;;;;;5997651;23;20166;-85
2023/10/22 07:39:53;;;;;;;1.02;0.43;;;17.80;53.00;;;;;;5993247;23;20177;-85
2023/10/22 07:42:26;;;;;;;0.50;0.43;;;17.90;53.70;;;;;;5993519;23;20275;-86
2023/10/22 07:44:52;;;;;;;1.88;0.40;;;17.90;52.80;;;;;;5993692;23;20162;-85
2023/10/22 07:47:18;;;;;;;0.60;0.50;;;17.90;53.10;;;;;;5988077;23;20505;-85
2023/10/22 07:49:44;;;;;;;0.80;0.50;;;17.80;53.00;;;;;;6052680;23;20204;-84
2023/10/22 07:52:17;;;;;;;1.38;0.40;;;17.90;53.00;;;;;;6050736;23;20181;-86
2023/10/22 07:54:52;;;;;;;2.35;0.68;;;17.90;53.10;;;;;;6026646;23;20153;-85
2023/10/22 07:57:18;;;;;;;0.70;0.50;;;17.90;52.80;;;;;;6074426;23;20144;-83
2023/10/22 07:59:44;;;;;;;1.85;0.73;;;17.90;52.90;;;;;;6048540;23;20149;-83
2023/10/22 08:02:10;;;;;;;0.70;0.50;;;17.90;53.10;;;;;;6108682;23;20155;-83
2023/10/22 08:04:37;;;;;;;0.57;0.47;;;17.90;52.90;;;;;;6130703;23;20194;-85
2023/10/22 08:07:04;;;;;;;1.17;0.45;;;17.80;53.00;;;;;;6161873;23;20143;-85
2023/10/22 08:09:30;;;;;;;4.45;0.70;;;17.70;53.30;;;;;;6108826;23;20639;-83
2023/10/22 08:11:56;;;;;;;3.35;0.57;;;17.80;53.40;;;;;;6109568;23;20677;-82
2023/10/22 08:14:24;;;;;;;1.33;0.50;;;17.80;53.50;;;;;;6135762;23;20209;-86
2023/10/22 08:16:50;;;;;;;3.60;0.80;;;17.80;53.40;;;;;;6109375;23;20150;-85
2023/10/22 08:19:19;;;;;;;2.00;0.60;;;17.80;53.50;;;;;;6138319;23;20143;-84
2023/10/22 08:21:45;;;;;;;1.67;0.52;;;17.80;53.40;;;;;;6138706;23;20250;-85
2023/10/22 08:24:16;;;;;;;4.45;0.57;;;17.80;53.40;;;;;;6106831;23;20202;-85
2023/10/22 08:26:42;;;;;;;5.43;0.70;;;17.80;53.50;;;;;;6105059;23;20155;-83
2023/10/22 08:29:08;;;;;;;0.43;0.40;;;17.80;53.50;;;;;;6138217;23;20143;-85
2023/10/22 08:31:36;;;;;;;6.38;0.90;;;17.80;53.50;;;;;;6066965;23;20534;-83
2023/10/22 08:34:02;;;;;;;2.22;0.50;;;17.80;53.50;;;;;;6073432;23;20216;-85
2023/10/22 08:36:35;;;;;;;2.63;0.70;;;17.80;53.50;;;;;;6049939;23;20175;-84
2023/10/22 08:39:05;;;;;;;3.90;0.68;;;17.80;53.50;;;;;;6044494;23;20608;-87
2023/10/22 08:41:43;;;;;;;2.38;0.47;;;17.80;53.60;;;;;;6044977;23;20156;-84
2023/10/22 08:44:09;;;;;;;2.42;0.82;;;17.70;53.70;;;;;;6075646;23;20145;-84
2023/10/22 08:46:34;;;;;;;4.05;0.93;;;17.70;53.80;;;;;;6078615;23;20513;-84
2023/10/22 08:49:09;;;;;;;1.35;0.60;;;17.70;53.70;;;;;;6079397;23;20224;-84
2023/10/22 08:51:37;;;;;;;2.60;0.60;;;17.70;53.80;;;;;;6049878;23;20203;-82
2023/10/22 08:54:04;;;;;;;2.42;0.60;;;17.80;53.80;;;;;;6051926;23;20149;-82
2023/10/22 08:56:32;;;;;;;3.75;0.50;;;17.70;53.80;;;;;;6051485;23;20172;-82
2023/10/22 08:59:00;;;;;;;1.95;0.40;;;17.80;53.90;;;;;;6050169;23;20156;-83
2023/10/22 09:01:29;;;;;;;1.75;0.40;;;17.70;53.80;;;;;;6077249;23;20149;-85
2023/10/22 09:04:01;;;;;;;0.60;0.47;;;17.70;53.80;;;;;;6137173;23;20206;-83
2023/10/22 09:06:27;;;;;;;3.97;0.60;;;17.70;53.90;;;;;;6108958;23;20155;-83
2023/10/22 09:08:53;;;;;;;2.08;0.57;;;17.70;54.00;;;;;;6112716;23;20170;-85
2023/10/22 09:11:20;;;;;;;1.67;0.55;;;17.70;54.10;;;;;;6106721;23;20186;-83
2023/10/22 09:13:46;;;;;;;1.60;0.60;;;17.70;54.20;;;;;;6131270;23;20141;-84
2023/10/22 09:16:28;;;;;;;1.63;0.50;;;17.60;54.30;;;;;;6160667;23;20593;-84
2023/10/22 09:18:57;;;;;;;0.32;0.32;;;17.60;54.40;;;;;;6141264;23;20206;-83
2023/10/22 09:21:23;;;;;;;1.05;0.40;;;17.70;54.40;;;;;;6144650;23;20135;-87
2023/10/22 09:24:03;;;;;;;1.40;0.60;;;17.70;54.60;;;;;;6170312;23;20205;-84
2023/10/22 09:26:44;;;;;;;0.82;0.50;;;17.80;54.50;;;;;;6113142;23;20201;-85
2023/10/22 09:29:14;;;;;;;3.22;0.45;;;17.80;54.30;;;;;;6111017;23;20170;-84
2023/10/22 09:31:53;;;;;;;3.53;0.82;;;17.80;54.20;;;;;;6155265;23;20171;-83
2023/10/22 09:34:25;;;;;;;2.53;0.90;;;17.80;54.20;;;;;;6109119;23;20162;-83
2023/10/22 09:36:54;;;;;;;2.25;0.47;;;17.80;54.30;;;;;;6137023;23;20142;-84
2023/10/22 09:39:37;;;;;;;1.27;0.50;;;17.80;54.40;;;;;;6091507;23;20159;-82
2023/10/22 09:42:06;;;;;;;1.45;0.40;;;17.80;54.40;;;;;;6125113;23;20579;-86
2023/10/22 09:44:37;;;;;;;1.70;0.50;;;17.70;54.40;;;;;;6109601;23;20214;-84
2023/10/22 09:47:07;;;;;;;3.60;0.30;;;17.70;55.10;;;;;;6062093;23;20195;-86
2023/10/22 09:49:38;;;;;;;3.17;0.30;;;17.80;54.40;;;;;;6054471;23;20569;-83
2023/10/22 09:52:06;;;;;;;3.80;0.60;;;17.80;54.50;;;;;;6104801;23;20188;-84
2023/10/22 09:54:36;;;;;;;4.78;0.50;;;17.70;54.40;;;;;;6080175;23;20156;-84
2023/10/22 09:57:09;;;;;;;1.50;0.38;;;17.80;54.50;;;;;;6081683;23;20286;-86
2023/10/22 09:59:36;;;;;;;5.78;0.52;;;17.70;54.60;;;;;;6126429;23;20142;-86
2023/10/22 10:02:02;;;;;;;2.65;0.50;;;17.80;54.60;;;;;;6129416;23;20187;-85
2023/10/22 10:04:34;;;;;;;0.93;0.38;;;17.80;54.70;;;;;;6098898;23;20138;-85
2023/10/22 10:07:03;;;;;;;1.85;0.40;;;17.80;54.70;;;;;;6056382;23;20167;-85
2023/10/22 10:09:30;;;;;;;1.50;0.57;;;17.80;54.60;;;;;;6103905;23;20187;-85
2023/10/22 10:11:57;;;;;;;3.03;0.77;;;17.80;54.70;;;;;;6110905;23;20491;-85
2023/10/22 10:14:42;;;;;;;4.32;0.50;;;17.80;54.80;;;;;;6084448;23;20164;-84
2023/10/22 10:17:09;;;;;;;2.17;0.45;;;17.80;54.80;;;;;;6108623;23;20158;-84
2023/10/22 10:19:40;;;;;;;1.45;0.40;;;17.80;54.80;;;;;;6133729;23;20156;-85
2023/10/22 10:22:06;;;;;;;1.80;0.43;;;17.80;54.80;;;;;;6065044;23;20163;-84
2023/10/22 10:24:34;;;;;;;2.78;0.40;;;17.80;54.80;;;;;;6108586;23;20535;-85
2023/10/22 10:27:22;;;;;;;3.50;0.55;;;17.80;54.80;;;;;;6110572;23;20137;-83
2023/10/22 10:30:16;;;;;;;3.42;0.50;;;17.90;54.80;;;;;;6088611;23;20167;-84
2023/10/22 10:32:43;;;;;;;0.73;0.60;;;17.90;54.80;;;;;;6114723;23;20171;-85
2023/10/22 10:35:13;;;;;;;0.40;0.22;;;17.90;54.80;;;;;;6111012;23;20133;-83
2023/10/22 10:38:01;;;;;;;0.60;0.40;;;17.90;54.70;;;;;;6087695;23;20224;-88
2023/10/22 10:40:46;;;;;;;1.67;0.40;;;17.90;54.70;;;;;;6109751;23;20194;-84
2023/10/22 10:43:19;;;;;;;1.98;0.32;;;17.90;54.80;;;;;;6128269;23;20169;-84
2023/10/22 10:46:22;;;;;;;1.27;0.40;;;17.90;54.80;;;;;;6093019;23;20155;-84
2023/10/22 10:48:48;;;;;;;2.88;0.70;;;17.80;54.80;;;;;;6162816;23;20227;-84
2023/10/22 10:51:21;;;;;;;0.40;0.35;;;18.00;54.90;;;;;;6116990;23;20539;-84
2023/10/22 10:54:14;;;;;;;0.40;0.40;;;17.80;54.80;;;;;;6112211;23;20558;-86
2023/10/22 10:56:50;;;;;;;0.40;0.40;;;17.80;54.80;;;;;;6113939;23;20151;-85
2023/10/22 10:59:39;;;;;;;0.85;0.40;;;17.90;55.00;;;;;;6088538;23;20143;-85
2023/10/22 11:02:07;;;;;;;1.83;0.50;;;17.90;55.00;;;;;;6053284;23;20542;-85
2023/10/22 11:04:35;;;;;;;2.08;0.40;;;17.80;54.90;;;;;;6027374;23;20168;-84
2023/10/22 11:07:02;;;;;;;1.40;0.50;;;17.80;54.90;;;;;;6049790;23;20160;-83
2023/10/22 11:09:34;;;;;;;0.60;0.40;;;17.80;54.90;;;;;;6074573;23;20137;-84
2023/10/22 11:12:04;;;;;;;1.25;0.30;;;17.90;54.90;;;;;;6004018;23;20267;-84
2023/10/22 11:14:32;;;;;;;0.95;0.38;;;17.90;54.90;;;;;;6051605;23;20149;-83
2023/10/22 11:17:02;;;;;;;1.30;0.43;;;17.90;54.90;;;;;;6053003;23;20176;-83
2023/10/22 11:19:33;;;;;;;6.43;0.60;;;17.90;54.90;;;;;;6003977;23;20292;-83
2023/10/22 11:22:02;;;;;;;1.13;0.45;;;17.90;54.80;;;;;;6003437;23;20160;-86
2023/10/22 11:24:30;;;;;;;1.65;0.40;;;17.90;54.80;;;;;;6024051;23;20227;-84
2023/10/22 11:27:01;;;;;;;1.17;0.30;;;17.80;54.80;;;;;;6048828;23;20212;-86
2023/10/22 11:29:29;;;;;;;0.32;0.32;;;17.90;54.80;;;;;;6050222;23;20589;-83
2023/10/22 11:31:57;;;;;;;0.65;0.35;;;17.90;54.80;;;;;;6052352;23;20184;-85
2023/10/22 11:34:26;;;;;;;1.67;0.50;;;17.90;54.80;;;;;;6096333;23;20214;-84
2023/10/22 11:36:58;;;;;;;1.08;0.40;;;17.90;54.80;;;;;;6083425;23;20163;-83
2023/10/22 11:39:31;;;;;;;0.30;0.30;;;17.90;54.80;;;;;;6109892;23;20147;-85
2023/10/22 11:41:58;;;;;;;1.85;0.40;;;17.90;54.60;;;;;;6133824;23;20194;-86
2023/10/22 11:44:33;;;;;;;1.08;0.50;;;17.80;54.60;;;;;;6133615;23;20563;-84
2023/10/22 11:47:00;;;;;;;1.70;0.40;;;17.90;54.70;;;;;;6088950;23;20194;-87
2023/10/22 11:49:25;;;;;;;0.88;0.40;;;17.90;54.60;;;;;;6084108;23;20155;-84
2023/10/22 11:51:53;;;;;;;2.42;0.50;;;17.90;54.70;;;;;;6109651;23;20179;-85
2023/10/22 11:54:19;;;;;;;2.28;0.45;;;17.90;54.60;;;;;;6108628;23;20143;-83
2023/10/22 11:56:47;;;;;;;0.47;0.40;;;17.90;55.30;;;;;;6109268;23;20152;-84
2023/10/22 11:59:14;;;;;;;0.77;0.40;;;17.90;54.60;;;;;;6111356;23;20128;-85
2023/10/22 12:01:40;;;;;;;0.95;0.40;;;17.90;54.60;;;;;;6107837;23;20259;-83
2023/10/22 12:04:06;;;;;;;0.98;0.40;;;17.90;54.70;;;;;;6083755;23;20644;-84
2023/10/22 12:06:32;;;;;;;1.08;0.50;;;17.80;54.60;;;;;;6107871;23;20202;-86
2023/10/22 12:08:58;;;;;;;0.75;0.50;;;17.90;54.70;;;;;;6107616;23;20151;-85
2023/10/22 12:11:25;;;;;;;0.40;0.32;;;17.80;54.70;;;;;;6109754;23;20183;-83
2023/10/22 12:13:51;;;;;;;0.80;0.35;;;17.80;54.70;;;;;;6134580;23;20139;-83
2023/10/22 12:16:21;;;;;;;1.60;0.47;;;17.80;54.70;;;;;;6110188;23;20143;-82
2023/10/22 12:18:46;;;;;;;0.90;0.40;;;17.70;54.60;;;;;;6135540;23;20136;-83
2023/10/22 12:21:12;;;;;;;0.50;0.50;;;17.80;54.80;;;;;;6135004;23;20481;-84
2023/10/22 12:23:41;;;;;;;3.00;0.70;;;17.80;54.90;;;;;;6113368;23;20151;-83
2023/10/22 12:26:13;;;;;;;0.73;0.40;;;17.80;55.00;;;;;;6044725;23;20296;-84
2023/10/22 12:28:42;;;;;;;3.03;0.40;;;17.70;55.00;;;;;;5908674;24;20525;-86
2023/10/22 12:31:11;;;;;;;0.60;0.50;;;17.70;55.00;;;;;;5909485;24;20191;-83
2023/10/22 12:33:38;;;;;;;0.40;0.30;;;17.80;54.90;;;;;;5907566;24;20191;-84
2023/10/22 12:36:05;;;;;;;0.55;0.30;;;17.80;54.90;;;;;;5885976;24;20243;-85
2023/10/22 12:38:32;;;;;;;0.50;0.32;;;17.80;54.80;;;;;;5886750;24;20169;-84
2023/10/22 12:41:01;;;;;;;3.90;0.60;;;17.80;54.80;;;;;;5879898;24;20161;-86
2023/10/22 12:43:27;;;;;;;0.40;0.40;;;17.80;54.80;;;;;;5874105;24;20161;-84
2023/10/22 12:45:53;;;;;;;1.00;0.43;;;17.80;54.80;;;;;;5902261;24;20157;-84
2023/10/22 12:48:19;;;;;;;0.30;0.30;;;17.80;54.80;;;;;;5925797;24;20200;-83
2023/10/22 12:50:48;;;;;;;0.80;0.50;;;17.80;54.80;;;;;;5905964;24;20157;-86
2023/10/22 12:53:17;;;;;;;1.58;0.40;;;17.90;54.80;;;;;;5927497;24;20251;-86
2023/10/22 12:55:53;;;;;;;0.52;0.40;;;17.90;54.80;;;;;;5923880;24;20157;-83